createdAt,value
2022-11-27T00:05:51.603Z,81.41
2022-11-27T00:34:46.683Z,81.14
2022-11-27T01:03:45.839Z,81.13
2022-11-27T01:32:46.534Z,81.75
2022-11-27T02:01:45.396Z,81.63
2022-11-27T02:30:40.592Z,80.66
2022-11-27T02:59:45.581Z,81.04
2022-11-27T03:28:32.963Z,80.74
2022-11-27T03:57:23.901Z,80.65
2022-11-27T04:26:15.025Z,80.66
2022-11-27T04:55:11.189Z,81.27
2022-11-27T05:24:04.335Z,80.37
2022-11-27T05:52:54.049Z,79.87
2022-11-27T06:21:51.325Z,81.02
2022-11-27T06:50:18.616Z,80.9
2022-11-27T07:18:47.304Z,79.88
2022-11-27T07:47:10.571Z,79.9
2022-11-27T08:16:04.835Z,78.79
2022-11-27T08:44:56.314Z,78.15
2022-11-27T09:13:52.610Z,78.35
2022-11-27T09:42:54.061Z,76.68
2022-11-27T10:11:12.760Z,78.05
2022-11-27T10:40:07.854Z,77.46
2022-11-27T11:09:02.359Z,78.38
2022-11-27T11:37:29.792Z,78.95
2022-11-27T12:06:24.736Z,78.26
2022-11-27T12:35:15.233Z,78.49
2022-11-27T13:04:03.661Z,78.54
2022-11-27T13:32:56.204Z,79.18
2022-11-27T14:01:51.783Z,79.65
2022-11-27T14:30:38.256Z,80.03
2022-11-27T14:59:32.820Z,80.65
2022-11-27T15:28:18.703Z,81.51
2022-11-27T15:56:46.716Z,82.05
2022-11-27T16:25:40.651Z,82.36
2022-11-27T16:54:37.249Z,82.72
2022-11-27T17:23:26.116Z,83.57
2022-11-27T17:52:26.938Z,82.89
2022-11-27T18:20:45.353Z,82.11
2022-11-27T18:49:38.597Z,81.9
2022-11-27T19:18:29.181Z,80.47
2022-11-27T19:46:51.408Z,80.33
2022-11-27T20:15:43.976Z,80.5
2022-11-27T20:44:26.524Z,82.07
2022-11-27T21:13:08.139Z,82.56
2022-11-27T21:41:55.045Z,81.93
2022-11-27T22:10:45.702Z,80.65
2022-11-27T22:39:38.848Z,80.26
2022-11-27T23:08:28.715Z,80.67
2022-11-27T23:37:19.281Z,80.17
